sensor_id;sensor_type;location;lat;lon;timestamp;pressure;altitude;pressure_sealevel;temperature;humidity
10064;BME280;5071;52.360;13.134;2022-10-16T00:03:15;100752.63;;;13.63;98.99
10064;BME280;5071;52.360;13.134;2022-10-16T00:08:19;100752.34;;;13.75;99.21
10064;BME280;5071;52.360;13.134;2022-10-16T00:13:21;100752.03;;;13.87;98.99
10064;BME280;5071;52.360;13.134;2022-10-16T00:18:24;100753.66;;;13.93;99.56
10064;BME280;5071;52.360;13.134;2022-10-16T00:23:27;100756.00;;;14.05;99.31
10064;BME280;5071;52.360;13.134;2022-10-16T00:28:29;100764.41;;;14.23;99.30
10064;BME280;5071;52.360;13.134;2022-10-16T00:33:32;100773.72;;;14.41;98.90
10064;BME280;5071;52.360;13.134;2022-10-16T00:38:35;100776.75;;;14.61;98.09
10064;BME280;5071;52.360;13.134;2022-10-16T00:43:39;100770.13;;;14.74;97.45
10064;BME280;5071;52.360;13.134;2022-10-16T00:48:45;100774.38;;;14.82;96.82
10064;BME280;5071;52.360;13.134;2022-10-16T00:53:49;100784.00;;;14.87;96.14
10064;BME280;5071;52.360;13.134;2022-10-16T00:58:51;100777.59;;;14.93;95.74
10064;BME280;5071;52.360;13.134;2022-10-16T01:03:53;100781.03;;;14.98;95.50
10064;BME280;5071;52.360;13.134;2022-10-16T01:09:11;100773.13;;;14.93;95.31
10064;BME280;5071;52.360;13.134;2022-10-16T01:14:19;100778.66;;;14.87;95.81
10064;BME280;5071;52.360;13.134;2022-10-16T01:19:36;100791.50;;;14.74;95.75
10064;BME280;5071;52.360;13.134;2022-10-16T01:24:44;100802.63;;;14.59;96.11
10064;BME280;5071;52.360;13.134;2022-10-16T01:29:52;100817.06;;;14.50;96.85
10064;BME280;5071;52.360;13.134;2022-10-16T01:34:59;100810.16;;;14.43;97.22
10064;BME280;5071;52.360;13.134;2022-10-16T01:40:06;100807.44;;;14.45;97.21
10064;BME280;5071;52.360;13.134;2022-10-16T01:45:14;100814.44;;;14.49;97.75
10064;BME280;5071;52.360;13.134;2022-10-16T01:50:19;100814.28;;;14.55;97.28
10064;BME280;5071;52.360;13.134;2022-10-16T01:55:24;100827.66;;;14.55;97.37
10064;BME280;5071;52.360;13.134;2022-10-16T02:00:31;100840.97;;;14.56;97.48
10064;BME280;5071;52.360;13.134;2022-10-16T02:05:38;100846.31;;;14.56;97.44
10064;BME280;5071;52.360;13.134;2022-10-16T02:10:42;100841.78;;;14.60;97.15
10064;BME280;5071;52.360;13.134;2022-10-16T02:15:45;100840.91;;;14.60;97.40
10064;BME280;5071;52.360;13.134;2022-10-16T02:20:51;100837.31;;;14.61;96.89
10064;BME280;5071;52.360;13.134;2022-10-16T02:25:55;100831.84;;;14.65;97.00
10064;BME280;5071;52.360;13.134;2022-10-16T02:31:03;100842.56;;;14.64;96.45
10064;BME280;5071;52.360;13.134;2022-10-16T02:36:07;100842.00;;;14.51;96.81
10064;BME280;5071;52.360;13.134;2022-10-16T02:41:09;100847.72;;;14.37;96.94
10064;BME280;5071;52.360;13.134;2022-10-16T02:46:13;100848.75;;;14.31;97.58
10064;BME280;5071;52.360;13.134;2022-10-16T02:51:15;100854.25;;;14.25;98.12
10064;BME280;5071;52.360;13.134;2022-10-16T02:56:17;100839.34;;;14.16;98.25
10064;BME280;5071;52.360;13.134;2022-10-16T03:01:21;100853.84;;;14.06;98.18
10064;BME280;5071;52.360;13.134;2022-10-16T03:06:24;100859.44;;;13.95;98.71
10064;BME280;5071;52.360;13.134;2022-10-16T03:11:26;100863.00;;;13.94;98.93
10064;BME280;5071;52.360;13.134;2022-10-16T03:16:29;100845.47;;;13.84;99.10
10064;BME280;5071;52.360;13.134;2022-10-16T03:21:31;100865.34;;;13.72;99.63
10064;BME280;5071;52.360;13.134;2022-10-16T03:26:33;100876.91;;;13.71;100.00
10064;BME280;5071;52.360;13.134;2022-10-16T03:31:36;100882.41;;;13.64;99.98
10064;BME280;5071;52.360;13.134;2022-10-16T03:36:39;100890.44;;;13.62;100.00
10064;BME280;5071;52.360;13.134;2022-10-16T03:41:41;100902.94;;;13.60;100.00
10064;BME280;5071;52.360;13.134;2022-10-16T03:46:44;100909.28;;;13.54;100.00
10064;BME280;5071;52.360;13.134;2022-10-16T03:51:46;100909.34;;;13.51;100.00
10064;BME280;5071;52.360;13.134;2022-10-16T03:56:48;100923.63;;;13.50;100.00
10064;BME280;5071;52.360;13.134;2022-10-16T04:01:52;100919.75;;;13.64;100.00
10064;BME280;5071;52.360;13.134;2022-10-16T04:06:54;100923.34;;;13.63;100.00
10064;BME280;5071;52.360;13.134;2022-10-16T04:11:56;100915.41;;;13.59;100.00
10064;BME280;5071;52.360;13.134;2022-10-16T04:16:59;100907.66;;;13.47;100.00
10064;BME280;5071;52.360;13.134;2022-10-16T04:22:01;100921.25;;;13.36;100.00
10064;BME280;5071;52.360;13.134;2022-10-16T04:27:03;100907.06;;;13.34;100.00
10064;BME280;5071;52.360;13.134;2022-10-16T04:32:07;100900.28;;;13.18;100.00
10064;BME280;5071;52.360;13.134;2022-10-16T04:37:09;100919.00;;;13.13;100.00
10064;BME280;5071;52.360;13.134;2022-10-16T04:42:11;100915.75;;;12.99;100.00
10064;BME280;5071;52.360;13.134;2022-10-16T04:47:14;100905.31;;;12.87;100.00
10064;BME280;5071;52.360;13.134;2022-10-16T04:52:17;100919.53;;;12.86;100.00
10064;BME280;5071;52.360;13.134;2022-10-16T04:57:19;100916.03;;;12.83;100.00
10064;BME280;5071;52.360;13.134;2022-10-16T05:02:23;100940.84;;;12.86;100.00
10064;BME280;5071;52.360;13.134;2022-10-16T05:07:24;100948.00;;;12.83;100.00
10064;BME280;5071;52.360;13.134;2022-10-16T05:12:27;100955.13;;;12.81;100.00
10064;BME280;5071;52.360;13.134;2022-10-16T05:17:30;100943.63;;;12.79;100.00
10064;BME280;5071;52.360;13.134;2022-10-16T05:22:32;100936.47;;;12.83;100.00
10064;BME280;5071;52.360;13.134;2022-10-16T05:27:34;100940.69;;;12.95;100.00
10064;BME280;5071;52.360;13.134;2022-10-16T05:32:37;100951.13;;;13.07;100.00
10064;BME280;5071;52.360;13.134;2022-10-16T05:37:39;100951.97;;;13.09;100.00
10064;BME280;5071;52.360;13.134;2022-10-16T05:42:41;100949.13;;;13.18;100.00
10064;BME280;5071;52.360;13.134;2022-10-16T05:47:45;100950.00;;;13.19;100.00
10064;BME280;5071;52.360;13.134;2022-10-16T05:52:47;100939.31;;;13.19;100.00
10064;BME280;5071;52.360;13.134;2022-10-16T05:57:49;100954.25;;;13.31;100.00
10064;BME280;5071;52.360;13.134;2022-10-16T06:02:53;100962.91;;;13.42;100.00
10064;BME280;5071;52.360;13.134;2022-10-16T06:07:55;100962.91;;;13.42;100.00
10064;BME280;5071;52.360;13.134;2022-10-16T06:12:57;100962.69;;;13.51;100.00
10064;BME280;5071;52.360;13.134;2022-10-16T06:18:00;100966.31;;;13.49;100.00
10064;BME280;5071;52.360;13.134;2022-10-16T06:23:03;100976.00;;;13.53;100.00
10064;BME280;5071;52.360;13.134;2022-10-16T06:28:04;100990.25;;;13.52;100.00
10064;BME280;5071;52.360;13.134;2022-10-16T06:33:08;100991.09;;;13.55;100.00
10064;BME280;5071;52.360;13.134;2022-10-16T06:38:10;101016.63;;;13.67;100.00
10064;BME280;5071;52.360;13.134;2022-10-16T06:43:12;101018.09;;;13.80;100.00
10064;BME280;5071;52.360;13.134;2022-10-16T06:48:15;101010.69;;;13.95;100.00
10064;BME280;5071;52.360;13.134;2022-10-16T06:53:17;101020.19;;;14.08;100.00
10064;BME280;5071;52.360;13.134;2022-10-16T06:58:19;100998.69;;;14.13;99.64
10064;BME280;5071;52.360;13.134;2022-10-16T07:03:25;101023.94;;;14.38;99.55
10064;BME280;5071;52.360;13.134;2022-10-16T07:08:31;101042.00;;;14.66;97.34
10064;BME280;5071;52.360;13.134;2022-10-16T07:13:35;101026.03;;;15.32;96.12
10064;BME280;5071;52.360;13.134;2022-10-16T07:18:40;101029.38;;;16.03;94.19
10064;BME280;5071;52.360;13.134;2022-10-16T07:23:43;101033.22;;;16.24;90.06
10064;BME280;5071;52.360;13.134;2022-10-16T07:28:46;101058.94;;;16.29;88.44
10064;BME280;5071;52.360;13.134;2022-10-16T07:33:51;101059.50;;;16.11;88.36
10064;BME280;5071;52.360;13.134;2022-10-16T07:38:54;101051.75;;;16.00;89.43
10064;BME280;5071;52.360;13.134;2022-10-16T07:44:03;101056.84;;;16.09;89.35
10064;BME280;5071;52.360;13.134;2022-10-16T07:49:12;101059.38;;;16.14;89.52
10064;BME280;5071;52.360;13.134;2022-10-16T07:54:14;101072.91;;;16.09;90.28
10064;BME280;5071;52.360;13.134;2022-10-16T07:59:19;101084.69;;;16.04;90.45
10064;BME280;5071;52.360;13.134;2022-10-16T08:04:27;101083.44;;;16.16;90.48
10064;BME280;5071;52.360;13.134;2022-10-16T08:09:32;101087.25;;;16.37;89.86
10064;BME280;5071;52.360;13.134;2022-10-16T08:14:35;101108.06;;;16.86;88.51
10064;BME280;5071;52.360;13.134;2022-10-16T08:19:38;101097.72;;;17.29;85.34
10064;BME280;5071;52.360;13.134;2022-10-16T08:24:40;101099.75;;;17.47;83.63
10064;BME280;5071;52.360;13.134;2022-10-16T08:29:42;101110.75;;;17.65;82.64
10064;BME280;5071;52.360;13.134;2022-10-16T08:34:45;101117.38;;;17.55;83.24
10064;BME280;5071;52.360;13.134;2022-10-16T08:39:47;101106.00;;;17.48;82.54
10064;BME280;5071;52.360;13.134;2022-10-16T08:45:02;101110.91;;;17.60;82.03
10064;BME280;5071;52.360;13.134;2022-10-16T08:50:12;101115.31;;;17.63;81.74
10064;BME280;5071;52.360;13.134;2022-10-16T08:55:30;101122.78;;;17.78;81.13
10064;BME280;5071;52.360;13.134;2022-10-16T09:00:33;101131.84;;;18.01;79.49
10064;BME280;5071;52.360;13.134;2022-10-16T09:05:49;101150.38;;;17.83;80.52
10064;BME280;5071;52.360;13.134;2022-10-16T09:10:57;101162.78;;;17.87;80.04
10064;BME280;5071;52.360;13.134;2022-10-16T09:16:12;101163.19;;;18.49;77.63
10064;BME280;5071;52.360;13.134;2022-10-16T09:21:21;101143.41;;;18.74;76.39
10064;BME280;5071;52.360;13.134;2022-10-16T09:26:23;101151.47;;;19.18;74.04
10064;BME280;5071;52.360;13.134;2022-10-16T09:31:25;101137.44;;;19.74;71.86
10064;BME280;5071;52.360;13.134;2022-10-16T09:36:39;101158.50;;;19.42;72.66
10064;BME280;5071;52.360;13.134;2022-10-16T09:41:42;101162.53;;;19.54;71.57
10064;BME280;5071;52.360;13.134;2022-10-16T09:46:45;101169.81;;;19.30;71.02
10064;BME280;5071;52.360;13.134;2022-10-16T09:51:48;101177.59;;;19.16;71.21
10064;BME280;5071;52.360;13.134;2022-10-16T09:56:50;101197.41;;;23.81;57.92
10064;BME280;5071;52.360;13.134;2022-10-16T10:01:53;101185.66;;;23.04;57.30
10064;BME280;5071;52.360;13.134;2022-10-16T10:06:57;101207.66;;;25.19;51.89
10064;BME280;5071;52.360;13.134;2022-10-16T10:12:00;101194.78;;;24.81;51.38
10064;BME280;5071;52.360;13.134;2022-10-16T10:17:13;101194.41;;;26.59;46.71
10064;BME280;5071;52.360;13.134;2022-10-16T10:22:42;101203.50;;;22.75;55.78
10064;BME280;5071;52.360;13.134;2022-10-16T10:27:57;101192.91;;;21.33;60.48
10064;BME280;5071;52.360;13.134;2022-10-16T10:33:17;101203.19;;;21.08;61.43
10064;BME280;5071;52.360;13.134;2022-10-16T10:38:30;101205.66;;;22.01;59.56
10064;BME280;5071;52.360;13.134;2022-10-16T10:43:44;101204.25;;;24.17;52.38
10064;BME280;5071;52.360;13.134;2022-10-16T10:49:03;101206.78;;;25.73;47.79
10064;BME280;5071;52.360;13.134;2022-10-16T10:54:14;101210.78;;;25.13;48.37
10064;BME280;5071;52.360;13.134;2022-10-16T10:59:42;101209.97;;;22.56;54.83
10064;BME280;5071;52.360;13.134;2022-10-16T11:05:10;101195.06;;;22.97;54.24
10064;BME280;5071;52.360;13.134;2022-10-16T11:10:21;101225.69;;;25.35;47.21
10064;BME280;5071;52.360;13.134;2022-10-16T11:15:27;101223.53;;;23.36;50.00
10064;BME280;5071;52.360;13.134;2022-10-16T11:20:32;101214.84;;;23.15;52.01
10064;BME280;5071;52.360;13.134;2022-10-16T11:25:39;101228.09;;;22.21;54.52
10064;BME280;5071;52.360;13.134;2022-10-16T11:30:44;101212.75;;;21.69;54.35
10064;BME280;5071;52.360;13.134;2022-10-16T11:35:50;101212.84;;;21.85;54.34
10064;BME280;5071;52.360;13.134;2022-10-16T11:40:59;101212.69;;;21.70;52.24
10064;BME280;5071;52.360;13.134;2022-10-16T11:46:07;101215.84;;;21.79;52.09
10064;BME280;5071;52.360;13.134;2022-10-16T11:51:15;101218.53;;;22.31;50.95
10064;BME280;5071;52.360;13.134;2022-10-16T11:56:20;101212.53;;;21.91;50.20
10064;BME280;5071;52.360;13.134;2022-10-16T12:01:28;101213.78;;;22.01;50.64
10064;BME280;5071;52.360;13.134;2022-10-16T12:06:36;101231.78;;;21.85;50.77
10064;BME280;5071;52.360;13.134;2022-10-16T12:11:40;101223.00;;;21.43;51.58
10064;BME280;5071;52.360;13.134;2022-10-16T12:16:51;101233.84;;;21.80;51.74
10064;BME280;5071;52.360;13.134;2022-10-16T12:21:56;101224.09;;;21.58;52.02
10064;BME280;5071;52.360;13.134;2022-10-16T12:27:00;101243.31;;;21.15;53.21
10064;BME280;5071;52.360;13.134;2022-10-16T12:32:05;101244.22;;;21.33;51.67
10064;BME280;5071;52.360;13.134;2022-10-16T12:37:10;101248.59;;;21.36;53.84
10064;BME280;5071;52.360;13.134;2022-10-16T12:42:32;101239.25;;;21.80;51.13
10064;BME280;5071;52.360;13.134;2022-10-16T12:47:47;101250.59;;;21.86;50.04
10064;BME280;5071;52.360;13.134;2022-10-16T12:52:49;101256.38;;;21.25;52.85
10064;BME280;5071;52.360;13.134;2022-10-16T12:58:24;101258.34;;;21.58;51.86
10064;BME280;5071;52.360;13.134;2022-10-16T13:04:00;101248.06;;;22.01;51.40
10064;BME280;5071;52.360;13.134;2022-10-16T13:09:14;101267.69;;;22.22;50.71
10064;BME280;5071;52.360;13.134;2022-10-16T13:14:36;101286.06;;;22.15;50.97
10064;BME280;5071;52.360;13.134;2022-10-16T13:19:53;101280.75;;;21.60;52.88
10064;BME280;5071;52.360;13.134;2022-10-16T13:25:09;101292.44;;;21.41;53.48
10064;BME280;5071;52.360;13.134;2022-10-16T13:30:19;101292.38;;;21.43;52.54
10064;BME280;5071;52.360;13.134;2022-10-16T13:35:23;101296.13;;;21.21;53.25
10064;BME280;5071;52.360;13.134;2022-10-16T13:40:26;101307.94;;;21.19;54.32
10064;BME280;5071;52.360;13.134;2022-10-16T13:45:29;101292.34;;;20.87;55.37
10064;BME280;5071;52.360;13.134;2022-10-16T13:50:32;101309.38;;;20.69;55.73
10064;BME280;5071;52.360;13.134;2022-10-16T13:55:36;101304.81;;;21.09;55.14
10064;BME280;5071;52.360;13.134;2022-10-16T14:00:53;101291.66;;;21.20;54.48
10064;BME280;5071;52.360;13.134;2022-10-16T14:05:59;101310.22;;;21.47;53.74
10064;BME280;5071;52.360;13.134;2022-10-16T14:11:02;101326.03;;;21.73;52.29
10064;BME280;5071;52.360;13.134;2022-10-16T14:16:10;101335.97;;;21.35;52.58
10064;BME280;5071;52.360;13.134;2022-10-16T14:21:18;101328.22;;;21.08;53.40
10064;BME280;5071;52.360;13.134;2022-10-16T14:26:23;101341.22;;;21.38;53.35
10064;BME280;5071;52.360;13.134;2022-10-16T14:31:30;101339.69;;;21.32;53.16
10064;BME280;5071;52.360;13.134;2022-10-16T14:36:33;101345.97;;;21.14;52.67
10064;BME280;5071;52.360;13.134;2022-10-16T14:41:42;101347.78;;;21.32;52.34
10064;BME280;5071;52.360;13.134;2022-10-16T14:46:47;101347.06;;;21.10;52.91
10064;BME280;5071;52.360;13.134;2022-10-16T14:51:50;101340.91;;;20.87;52.51
10064;BME280;5071;52.360;13.134;2022-10-16T14:56:53;101338.25;;;20.67;53.49
10064;BME280;5071;52.360;13.134;2022-10-16T15:01:58;101338.22;;;20.46;52.92
10064;BME280;5071;52.360;13.134;2022-10-16T15:07:00;101348.94;;;20.27;53.87
10064;BME280;5071;52.360;13.134;2022-10-16T15:12:02;101350.47;;;20.12;53.58
10064;BME280;5071;52.360;13.134;2022-10-16T15:17:08;101367.25;;;19.97;53.92
10064;BME280;5071;52.360;13.134;2022-10-16T15:22:11;101371.44;;;19.60;55.39
10064;BME280;5071;52.360;13.134;2022-10-16T15:27:13;101380.59;;;19.32;56.37
10064;BME280;5071;52.360;13.134;2022-10-16T15:32:16;101388.06;;;19.00;56.46
10064;BME280;5071;52.360;13.134;2022-10-16T15:37:18;101397.63;;;18.84;56.85
10064;BME280;5071;52.360;13.134;2022-10-16T15:42:20;101386.88;;;18.59;57.51
10064;BME280;5071;52.360;13.134;2022-10-16T15:47:24;101400.81;;;18.45;58.03
10064;BME280;5071;52.360;13.134;2022-10-16T15:52:26;101403.34;;;18.23;58.45
10064;BME280;5071;52.360;13.134;2022-10-16T15:57:29;101412.88;;;18.05;58.79
10064;BME280;5071;52.360;13.134;2022-10-16T16:02:32;101421.34;;;17.63;59.60
10064;BME280;5071;52.360;13.134;2022-10-16T16:07:34;101431.78;;;17.13;63.83
10064;BME280;5071;52.360;13.134;2022-10-16T16:12:37;101433.25;;;16.57;65.98
10064;BME280;5071;52.360;13.134;2022-10-16T16:17:41;101438.78;;;16.15;67.09
10064;BME280;5071;52.360;13.134;2022-10-16T16:22:43;101451.28;;;15.77;68.92
10064;BME280;5071;52.360;13.134;2022-10-16T16:27:44;101461.91;;;15.38;70.99
10064;BME280;5071;52.360;13.134;2022-10-16T16:32:47;101451.09;;;14.99;72.58
10064;BME280;5071;52.360;13.134;2022-10-16T16:37:50;101466.53;;;14.85;74.39
10064;BME280;5071;52.360;13.134;2022-10-16T16:42:52;101469.69;;;14.54;75.39
10064;BME280;5071;52.360;13.134;2022-10-16T16:47:55;101480.78;;;14.29;78.02
10064;BME280;5071;52.360;13.134;2022-10-16T16:52:57;101502.38;;;14.14;79.03
10064;BME280;5071;52.360;13.134;2022-10-16T16:57:59;101509.78;;;13.93;79.88
10064;BME280;5071;52.360;13.134;2022-10-16T17:03:02;101519.72;;;13.84;81.08
10064;BME280;5071;52.360;13.134;2022-10-16T17:08:06;101528.84;;;13.66;81.53
10064;BME280;5071;52.360;13.134;2022-10-16T17:13:08;101532.66;;;13.45;82.41
10064;BME280;5071;52.360;13.134;2022-10-16T17:18:11;101531.09;;;13.22;82.96
10064;BME280;5071;52.360;13.134;2022-10-16T17:23:14;101547.25;;;13.05;84.31
10064;BME280;5071;52.360;13.134;2022-10-16T17:28:16;101564.28;;;12.86;85.37
10064;BME280;5071;52.360;13.134;2022-10-16T17:33:20;101562.69;;;12.66;85.63
10064;BME280;5071;52.360;13.134;2022-10-16T17:38:22;101568.13;;;12.51;86.38
10064;BME280;5071;52.360;13.134;2022-10-16T17:43:23;101581.50;;;12.43;86.99
10064;BME280;5071;52.360;13.134;2022-10-16T17:48:26;101574.44;;;12.33;87.07
10064;BME280;5071;52.360;13.134;2022-10-16T17:53:28;101569.22;;;12.20;88.44
10064;BME280;5071;52.360;13.134;2022-10-16T17:58:30;101567.53;;;12.05;88.99
10064;BME280;5071;52.360;13.134;2022-10-16T18:03:34;101575.53;;;11.96;89.11
10064;BME280;5071;52.360;13.134;2022-10-16T18:08:35;101597.75;;;11.83;89.16
10064;BME280;5071;52.360;13.134;2022-10-16T18:13:38;101604.88;;;11.67;89.66
10064;BME280;5071;52.360;13.134;2022-10-16T18:18:43;101605.81;;;11.55;90.08
10064;BME280;5071;52.360;13.134;2022-10-16T18:23:46;101606.72;;;11.42;90.25
10064;BME280;5071;52.360;13.134;2022-10-16T18:28:53;101629.78;;;11.29;90.93
10064;BME280;5071;52.360;13.134;2022-10-16T18:33:58;101636.84;;;11.25;90.90
10064;BME280;5071;52.360;13.134;2022-10-16T18:39:03;101651.91;;;11.11;91.20
10064;BME280;5071;52.360;13.134;2022-10-16T18:44:06;101657.25;;;10.99;91.17
10064;BME280;5071;52.360;13.134;2022-10-16T18:49:10;101659.00;;;10.87;91.52
10064;BME280;5071;52.360;13.134;2022-10-16T18:54:13;101648.38;;;10.78;91.66
10064;BME280;5071;52.360;13.134;2022-10-16T18:59:15;101653.69;;;10.78;92.30
10064;BME280;5071;52.360;13.134;2022-10-16T19:04:19;101647.47;;;10.67;92.53
10064;BME280;5071;52.360;13.134;2022-10-16T19:09:22;101643.91;;;10.59;92.99
10064;BME280;5071;52.360;13.134;2022-10-16T19:14:24;101637.69;;;10.58;93.77
10064;BME280;5071;52.360;13.134;2022-10-16T19:19:28;101645.69;;;10.64;93.71
10064;BME280;5071;52.360;13.134;2022-10-16T19:24:31;101640.38;;;10.61;93.83
10064;BME280;5071;52.360;13.134;2022-10-16T19:29:32;101652.78;;;10.67;93.98
10064;BME280;5071;52.360;13.134;2022-10-16T19:34:36;101648.38;;;10.74;94.05
10064;BME280;5071;52.360;13.134;2022-10-16T19:39:38;101671.41;;;10.85;94.15
10064;BME280;5071;52.360;13.134;2022-10-16T19:44:40;101690.88;;;10.91;93.72
10064;BME280;5071;52.360;13.134;2022-10-16T19:49:43;101690.84;;;10.75;92.98
10064;BME280;5071;52.360;13.134;2022-10-16T19:54:45;101697.03;;;10.66;93.33
10064;BME280;5071;52.360;13.134;2022-10-16T19:59:50;101694.41;;;10.74;93.67
10064;BME280;5071;52.360;13.134;2022-10-16T20:04:53;101689.94;;;10.62;93.31
10064;BME280;5071;52.360;13.134;2022-10-16T20:09:55;101704.94;;;10.53;93.14
10064;BME280;5071;52.360;13.134;2022-10-16T20:14:57;101726.16;;;10.46;93.99
10064;BME280;5071;52.360;13.134;2022-10-16T20:20:00;101732.38;;;10.50;93.83
10064;BME280;5071;52.360;13.134;2022-10-16T20:25:03;101750.88;;;10.33;93.63
10064;BME280;5071;52.360;13.134;2022-10-16T20:30:10;101742.84;;;10.27;94.07
10064;BME280;5071;52.360;13.134;2022-10-16T20:35:14;101741.97;;;10.28;94.66
10064;BME280;5071;52.360;13.134;2022-10-16T20:40:16;101741.16;;;10.30;94.45
10064;BME280;5071;52.360;13.134;2022-10-16T20:45:18;101747.34;;;10.33;94.62
10064;BME280;5071;52.360;13.134;2022-10-16T20:50:21;101741.16;;;10.40;94.92
10064;BME280;5071;52.360;13.134;2022-10-16T20:55:23;101736.81;;;10.56;95.00
10064;BME280;5071;52.360;13.134;2022-10-16T21:00:25;101745.69;;;10.61;94.71
10064;BME280;5071;52.360;13.134;2022-10-16T21:05:29;101748.34;;;10.59;93.83
10064;BME280;5071;52.360;13.134;2022-10-16T21:10:31;101734.16;;;10.54;93.95
10064;BME280;5071;52.360;13.134;2022-10-16T21:15:33;101745.69;;;10.61;94.31
10064;BME280;5071;52.360;13.134;2022-10-16T21:20:40;101764.25;;;10.64;94.21
10064;BME280;5071;52.360;13.134;2022-10-16T21:25:47;101775.78;;;10.63;94.04
10064;BME280;5071;52.360;13.134;2022-10-16T21:30:49;101774.84;;;10.50;93.76
10064;BME280;5071;52.360;13.134;2022-10-16T21:35:53;101780.09;;;10.36;94.34
10064;BME280;5071;52.360;13.134;2022-10-16T21:40:55;101787.94;;;10.28;94.66
10064;BME280;5071;52.360;13.134;2022-10-16T21:45:58;101789.72;;;10.28;94.93
10064;BME280;5071;52.360;13.134;2022-10-16T21:51:01;101786.16;;;10.20;95.17
10064;BME280;5071;52.360;13.134;2022-10-16T21:56:03;101763.16;;;10.20;95.48
10064;BME280;5071;52.360;13.134;2022-10-16T22:01:06;101775.56;;;10.27;95.73
10064;BME280;5071;52.360;13.134;2022-10-16T22:06:11;101793.22;;;10.21;95.25
10064;BME280;5071;52.360;13.134;2022-10-16T22:11:16;101808.19;;;10.08;94.89
10064;BME280;5071;52.360;13.134;2022-10-16T22:16:25;101801.97;;;10.04;95.40
10064;BME280;5071;52.360;13.134;2022-10-16T22:21:29;101806.47;;;10.16;95.63
10064;BME280;5071;52.360;13.134;2022-10-16T22:26:30;101797.69;;;10.28;96.18
10064;BME280;5071;52.360;13.134;2022-10-16T22:31:33;101784.47;;;10.31;96.13
10064;BME280;5071;52.360;13.134;2022-10-16T22:36:36;101798.66;;;10.33;95.99
10064;BME280;5071;52.360;13.134;2022-10-16T22:41:38;101795.97;;;10.31;95.73
10064;BME280;5071;52.360;13.134;2022-10-16T22:46:40;101792.47;;;10.33;96.17
10064;BME280;5071;52.360;13.134;2022-10-16T22:51:44;101804.88;;;10.41;96.01
10064;BME280;5071;52.360;13.134;2022-10-16T22:56:45;101789.88;;;10.46;96.24
10064;BME280;5071;52.360;13.134;2022-10-16T23:01:48;101792.56;;;10.54;96.00
10064;BME280;5071;52.360;13.134;2022-10-16T23:06:51;101797.03;;;10.66;95.44
10064;BME280;5071;52.360;13.134;2022-10-16T23:11:53;101798.81;;;10.67;95.81
10064;BME280;5071;52.360;13.134;2022-10-16T23:16:55;101790.84;;;10.73;95.71
10064;BME280;5071;52.360;13.134;2022-10-16T23:21:59;101796.19;;;10.81;95.60
10064;BME280;5071;52.360;13.134;2022-10-16T23:27:01;101797.09;;;10.86;95.41
10064;BME280;5071;52.360;13.134;2022-10-16T23:32:02;101789.16;;;10.94;95.43
10064;BME280;5071;52.360;13.134;2022-10-16T23:37:06;101785.66;;;11.01;95.49
10064;BME280;5071;52.360;13.134;2022-10-16T23:42:08;101794.50;;;11.04;94.77
10064;BME280;5071;52.360;13.134;2022-10-16T23:47:10;101798.06;;;11.02;94.86
10064;BME280;5071;52.360;13.134;2022-10-16T23:52:13;101809.56;;;11.07;95.02
10064;BME280;5071;52.360;13.134;2022-10-16T23:57:15;101820.19;;;11.08;94.99
